Time;durP1;ratioP1;P1;durP2;ratioP2;P2;SDS_P1;SDS_P2;PMS_P1;PMS_P2;Temp;Humidity;BMP_temperature;BMP_pressure;BME280_temperature;BME280_humidity;BME280_pressure;Samples;Min_cycle;Max_cycle;Signal;HPM_P1;HPM_P2
2021/11/11 00:00:30;;;;;;;452.45;406.33;;;12.40;96.40;;;11.52;100.00;100964.47;5052606;28;20880;-65
2021/11/11 00:03:01;;;;;;;455.50;409.10;;;12.30;96.20;;;11.56;100.00;100972.81;5052655;28;20421;-65
2021/11/11 00:05:29;;;;;;;444.10;397.60;;;12.40;96.20;;;11.64;100.00;100971.38;5053308;28;20466;-62
2021/11/11 00:07:59;;;;;;;443.67;397.58;;;12.40;96.40;;;11.58;100.00;100967.91;5053033;28;20421;-68
2021/11/11 00:10:28;;;;;;;442.73;394.92;;;12.40;96.30;;;11.61;100.00;100970.03;5052879;28;20911;-70
2021/11/11 00:12:58;;;;;;;452.02;404.80;;;12.40;96.60;;;11.58;100.00;100976.03;5052345;28;20405;-64
2021/11/11 00:15:28;;;;;;;440.90;395.05;;;12.40;96.50;;;11.52;100.00;100979.91;5053016;28;20420;-69
2021/11/11 00:17:58;;;;;;;445.00;398.57;;;12.30;96.30;;;11.38;100.00;100976.31;5052983;28;20455;-67
2021/11/11 00:20:29;;;;;;;443.23;397.43;;;12.20;96.20;;;11.31;100.00;100973.16;5052819;28;20409;-66
2021/11/11 00:22:59;;;;;;;429.30;383.50;;;12.10;96.10;;;11.29;100.00;100973.47;5052333;28;20494;-66
2021/11/11 00:25:29;;;;;;;423.20;377.70;;;12.10;96.00;;;11.28;100.00;100965.63;5052921;28;20413;-64
2021/11/11 00:27:58;;;;;;;427.67;381.98;;;12.10;95.90;;;11.30;100.00;100958.84;5052790;28;20420;-67
2021/11/11 00:30:27;;;;;;;427.73;381.90;;;12.10;96.10;;;11.33;100.00;100960.16;5052603;28;20519;-66
2021/11/11 00:32:57;;;;;;;430.60;384.87;;;12.10;96.10;;;11.34;100.00;100965.25;5052096;28;20876;-70
2021/11/11 00:35:28;;;;;;;425.38;379.65;;;12.10;96.00;;;11.33;100.00;100965.56;5052934;28;20401;-69
2021/11/11 00:37:58;;;;;;;435.17;389.07;;;12.10;95.90;;;11.32;100.00;100964.75;5052441;28;20413;-65
2021/11/11 00:40:28;;;;;;;420.15;374.15;;;12.10;96.00;;;11.38;100.00;100960.06;5052468;28;20459;-66
2021/11/11 00:42:56;;;;;;;424.60;378.70;;;12.20;96.20;;;11.38;100.00;100960.88;5052028;28;20417;-62
2021/11/11 00:45:24;;;;;;;430.00;384.00;;;12.20;96.20;;;11.43;100.00;100962.72;5052536;28;20471;-69
2021/11/11 00:47:52;;;;;;;431.27;384.98;;;12.20;96.30;;;11.49;100.00;100958.84;5052482;28;20463;-66
2021/11/11 00:50:25;;;;;;;434.40;388.50;;;12.20;96.40;;;11.50;100.00;100963.97;5052112;28;20441;-67
2021/11/11 00:52:54;;;;;;;438.33;392.33;;;12.30;96.70;;;11.53;100.00;100957.97;5051907;28;20474;-66
2021/11/11 00:55:25;;;;;;;439.45;393.23;;;12.30;96.40;;;11.53;100.00;100949.84;5052102;28;20817;-69
2021/11/11 00:58:00;;;;;;;444.85;398.77;;;12.30;96.40;;;11.53;100.00;100951.75;5051934;28;20443;-64
2021/11/11 01:00:32;;;;;;;489.75;387.90;;;12.30;96.30;;;11.46;100.00;100945.88;5051830;28;20413;-64
2021/11/11 01:03:00;;;;;;;436.27;388.52;;;12.30;96.30;;;11.39;100.00;100946.25;5051400;28;20466;-69
2021/11/11 01:05:30;;;;;;;432.60;385.83;;;12.20;96.30;;;11.25;100.00;100939.13;5052134;28;20949;-69
2021/11/11 01:07:58;;;;;;;435.40;386.27;;;12.10;96.00;;;11.18;100.00;100944.94;5052019;28;20783;-69
2021/11/11 01:10:27;;;;;;;490.20;381.80;;;12.00;96.10;;;11.11;100.00;100946.34;5051352;28;20426;-69
2021/11/11 01:12:56;;;;;;;465.98;373.33;;;12.00;96.20;;;11.13;100.00;100946.88;5051437;28;20888;-65
2021/11/11 01:15:29;;;;;;;430.23;379.20;;;11.90;96.40;;;11.11;100.00;100949.88;5051716;28;20517;-64
2021/11/11 01:17:58;;;;;;;438.77;367.90;;;11.90;96.30;;;11.10;100.00;100942.03;5051834;28;20432;-66
2021/11/11 01:20:26;;;;;;;432.65;368.73;;;11.90;96.30;;;11.05;100.00;100940.22;5051613;28;20934;-65
2021/11/11 01:22:58;;;;;;;420.33;374.67;;;11.90;96.40;;;11.01;100.00;100936.47;5051124;28;20475;-65
2021/11/11 01:25:32;;;;;;;416.75;371.35;;;11.80;96.30;;;10.97;100.00;100938.16;5051751;28;20413;-65
2021/11/11 01:28:00;;;;;;;423.38;377.35;;;11.80;96.10;;;11.02;100.00;100937.28;5051560;28;20456;-67
2021/11/11 01:30:28;;;;;;;419.20;372.73;;;11.80;96.30;;;11.10;100.00;100933.91;5051559;28;20856;-65
2021/11/11 01:32:56;;;;;;;427.60;380.83;;;11.90;96.60;;;11.20;100.00;100937.31;5050892;28;20903;-65
2021/11/11 01:35:25;;;;;;;420.30;373.90;;;12.00;96.80;;;11.27;100.00;100932.34;5051497;28;20876;-68
2021/11/11 01:37:56;;;;;;;428.45;381.90;;;12.10;96.90;;;11.32;100.00;100921.44;5051393;28;20455;-65
2021/11/11 01:40:24;;;;;;;432.33;385.83;;;12.20;96.90;;;11.39;100.00;100926.50;5051174;28;20891;-64
2021/11/11 01:42:56;;;;;;;427.17;381.33;;;12.20;96.90;;;11.43;100.00;100922.91;5050796;28;20918;-63
2021/11/11 01:45:26;;;;;;;436.70;390.80;;;12.30;96.90;;;11.41;100.00;100927.00;5051659;28;20413;-70
2021/11/11 01:47:55;;;;;;;431.02;385.20;;;12.20;96.70;;;11.41;100.00;100924.28;5051025;28;20417;-64
2021/11/11 01:50:24;;;;;;;439.15;392.80;;;12.20;96.60;;;11.40;100.00;100926.19;5051077;28;20413;-68
2021/11/11 01:52:55;;;;;;;437.83;391.52;;;12.20;96.70;;;11.45;100.00;100928.84;5050439;28;20486;-64
2021/11/11 01:55:23;;;;;;;429.20;383.10;;;12.30;96.90;;;11.49;100.00;100929.03;5051097;28;20872;-67
2021/11/11 01:57:52;;;;;;;439.08;392.75;;;12.30;96.80;;;11.48;100.00;100932.88;5050949;28;20421;-65
2021/11/11 02:00:28;;;;;;;444.55;398.30;;;12.30;96.80;;;11.42;100.00;100928.63;5050556;28;20421;-65
2021/11/11 02:02:58;;;;;;;443.90;397.20;;;12.20;96.70;;;11.42;100.00;100924.03;5050406;28;20819;-67
2021/11/11 02:05:27;;;;;;;437.17;390.23;;;12.20;96.90;;;11.55;100.00;100927.88;5050796;28;20452;-68
2021/11/11 02:07:58;;;;;;;443.98;395.15;;;12.30;97.50;;;11.48;100.00;100930.97;5050721;28;20417;-64
2021/11/11 02:10:30;;;;;;;446.70;399.43;;;12.30;96.80;;;11.50;100.00;100933.38;5050477;28;20421;-66
2021/11/11 02:12:59;;;;;;;441.42;395.33;;;12.30;97.00;;;11.50;100.00;100931.47;5050130;28;20428;-67
2021/11/11 02:15:28;;;;;;;429.73;383.92;;;12.30;96.90;;;11.52;100.00;100923.03;5050706;28;20413;-65
2021/11/11 02:17:57;;;;;;;447.37;401.03;;;12.30;96.70;;;11.52;100.00;100921.16;5050406;28;20417;-67
2021/11/11 02:20:29;;;;;;;440.87;394.27;;;12.30;96.70;;;11.42;100.00;100928.63;5050413;28;20413;-68
2021/11/11 02:23:02;;;;;;;458.25;386.95;;;12.20;96.30;;;11.36;100.00;100918.97;5049272;28;20410;-67
2021/11/11 02:25:33;;;;;;;492.70;381.02;;;12.10;96.60;;;11.35;100.00;100918.16;5050419;28;20459;-68
2021/11/11 02:28:04;;;;;;;513.90;386.83;;;12.10;96.80;;;11.39;100.00;100912.97;5050330;28;20417;-64
2021/11/11 02:30:35;;;;;;;498.10;378.20;;;12.20;97.10;;;11.32;100.00;100917.94;5050041;28;20483;-68
2021/11/11 02:33:12;;;;;;;460.80;372.35;;;12.10;96.80;;;11.16;100.00;100919.22;5050000;28;20880;-64
2021/11/11 02:35:50;;;;;;;419.67;368.38;;;12.00;96.50;;;11.03;100.00;100914.53;5050324;28;20512;-67
2021/11/11 02:38:22;;;;;;;410.23;364.80;;;11.80;96.30;;;10.93;100.00;100907.34;5049683;28;20818;-64
2021/11/11 02:41:00;;;;;;;408.07;361.57;;;11.70;96.20;;;10.85;100.00;100913.41;5049907;28;20417;-68
2021/11/11 02:43:31;;;;;;;414.85;368.90;;;11.60;96.00;;;10.91;100.00;100914.97;5049973;28;20417;-67
2021/11/11 02:46:07;;;;;;;411.55;356.63;;;11.70;96.70;;;10.94;100.00;100912.47;5050096;28;20415;-64
2021/11/11 02:48:35;;;;;;;412.13;364.83;;;11.70;96.70;;;10.94;100.00;100914.38;5050061;28;20787;-69
2021/11/11 02:51:05;;;;;;;411.88;363.52;;;11.70;96.60;;;10.87;100.00;100906.63;5049632;28;20464;-67
2021/11/11 02:53:33;;;;;;;412.15;364.98;;;11.60;96.50;;;10.86;100.00;100915.00;5047908;28;20463;-67
2021/11/11 02:56:01;;;;;;;415.48;366.35;;;11.70;96.70;;;10.87;100.00;100928.25;5049716;28;20409;-68
2021/11/11 02:58:29;;;;;;;418.50;369.40;;;11.70;96.90;;;10.95;100.00;100918.69;5049317;28;20449;-66
2021/11/11 03:01:02;;;;;;;429.67;378.17;;;11.80;97.10;;;11.06;100.00;100916.66;5050065;28;20428;-69
2021/11/11 03:03:31;;;;;;;427.67;380.48;;;11.80;97.80;;;11.17;100.00;100918.13;5049391;28;20413;-70
2021/11/11 03:05:59;;;;;;;429.50;382.15;;;12.00;97.50;;;11.25;100.00;100909.34;5050081;28;20421;-67
2021/11/11 03:08:29;;;;;;;427.30;380.70;;;12.00;97.50;;;11.24;100.00;100915.88;5049963;28;20467;-67
2021/11/11 03:10:59;;;;;;;426.48;379.90;;;12.00;97.40;;;11.22;100.00;100909.94;5049925;28;20836;-71
2021/11/11 03:13:27;;;;;;;424.80;378.60;;;12.00;97.30;;;11.13;100.00;100903.56;5049393;28;20955;-66
2021/11/11 03:15:58;;;;;;;426.50;380.38;;;12.00;97.00;;;11.06;100.00;100909.38;5050010;28;20945;-64
2021/11/11 03:18:26;;;;;;;427.27;381.15;;;11.90;97.00;;;11.01;100.00;100911.31;5049732;28;20515;-64
2021/11/11 03:20:54;;;;;;;428.00;381.00;;;11.80;97.00;;;11.10;100.00;100906.84;5049988;28;20945;-70
2021/11/11 03:23:23;;;;;;;431.60;383.95;;;11.90;97.30;;;11.25;100.00;100906.66;5049397;28;20734;-65
2021/11/11 03:25:53;;;;;;;433.00;385.63;;;12.10;97.60;;;11.37;100.00;100904.31;5049789;28;20420;-69
2021/11/11 03:28:21;;;;;;;436.25;388.63;;;12.10;97.50;;;11.46;100.00;100907.97;5049639;28;20933;-65
2021/11/11 03:30:49;;;;;;;445.98;397.48;;;12.20;97.60;;;11.59;100.00;100901.00;5049677;28;20466;-66
2021/11/11 03:33:17;;;;;;;452.42;404.23;;;12.30;97.80;;;11.68;100.00;100900.06;5050600;28;20456;-65
2021/11/11 03:35:46;;;;;;;464.80;415.57;;;12.50;97.80;;;11.83;100.00;100902.56;5054061;28;20417;-65
2021/11/11 03:38:15;;;;;;;465.52;417.85;;;12.60;98.00;;;11.88;100.00;100902.50;5053611;28;20419;-67
2021/11/11 03:40:46;;;;;;;453.75;406.98;;;12.70;97.90;;;11.82;100.00;100892.84;5053691;28;20452;-69
2021/11/11 03:43:17;;;;;;;459.05;412.08;;;12.60;97.60;;;11.84;100.00;100898.75;5053052;28;20876;-66
2021/11/11 03:45:45;;;;;;;454.30;407.55;;;12.60;97.60;;;11.91;100.00;100896.47;5053728;28;20474;-69
2021/11/11 03:48:13;;;;;;;450.13;403.23;;;12.70;97.60;;;11.90;100.00;100897.56;5053545;28;20883;-69
2021/11/11 03:50:42;;;;;;;467.52;419.90;;;12.70;97.40;;;11.93;100.00;100898.88;5053400;28;20405;-69
2021/11/11 03:53:10;;;;;;;470.95;422.30;;;12.70;97.50;;;12.04;100.00;100898.41;5052862;28;20973;-65
2021/11/11 03:55:38;;;;;;;470.95;422.92;;;12.80;97.80;;;12.04;100.00;100901.09;5053371;28;20938;-65
2021/11/11 03:58:06;;;;;;;462.63;416.02;;;12.80;97.60;;;11.96;100.00;100898.28;5053164;28;20470;-65
2021/11/11 04:00:36;;;;;;;460.15;413.52;;;12.80;97.40;;;11.90;100.00;100897.56;5053085;28;20418;-68
2021/11/11 04:03:05;;;;;;;459.27;412.10;;;12.70;97.40;;;11.99;100.00;100905.81;5052813;28;20516;-64
2021/11/11 04:05:34;;;;;;;482.20;433.45;;;12.70;97.60;;;12.15;100.00;100912.59;5053202;28;20417;-69
2021/11/11 04:08:02;;;;;;;491.17;440.88;;;12.90;97.80;;;12.34;100.00;100909.81;5053141;28;20500;-67
2021/11/11 04:10:31;;;;;;;500.02;448.40;;;13.10;98.20;;;12.51;100.00;100912.75;5052684;28;20470;-65
2021/11/11 04:13:00;;;;;;;497.48;445.83;;;13.30;98.30;;;12.66;100.00;100906.22;5052459;28;20482;-63
2021/11/11 04:15:32;;;;;;;523.30;470.40;;;13.40;98.30;;;12.82;100.00;100908.34;5053142;28;20417;-67
2021/11/11 04:18:01;;;;;;;520.22;468.80;;;13.60;98.40;;;12.91;100.00;100917.38;5052877;28;20413;-64
2021/11/11 04:20:30;;;;;;;534.63;483.80;;;13.70;98.40;;;12.99;100.00;100916.66;5052760;28;20420;-68
2021/11/11 04:23:00;;;;;;;535.58;484.63;;;13.80;98.70;;;13.08;100.00;100909.44;5052157;28;20413;-63
2021/11/11 04:25:34;;;;;;;537.10;486.00;;;13.90;98.40;;;13.18;100.00;100907.63;5052915;28;20471;-62
2021/11/11 04:28:03;;;;;;;538.70;487.85;;;14.00;98.40;;;13.23;100.00;100908.31;5053003;28;20423;-70
2021/11/11 04:30:33;;;;;;;546.08;495.63;;;14.00;98.40;;;13.30;100.00;100913.34;5052378;28;20447;-65
2021/11/11 04:33:06;;;;;;;551.22;500.10;;;14.10;98.40;;;13.36;100.00;100912.09;5051995;28;20436;-69
2021/11/11 04:35:34;;;;;;;559.80;508.13;;;14.10;98.40;;;13.40;100.00;100915.84;5052561;28;20487;-66
2021/11/11 04:38:07;;;;;;;556.10;504.33;;;14.20;98.40;;;13.46;100.00;100920.03;5052785;28;20423;-67
2021/11/11 04:51:56;;;;;;;559.92;510.20;;;14.30;98.30;;;13.37;100.00;100913.72;5041702;28;20514;-68
2021/11/11 05:02:59;;;;;;;551.47;502.20;;;14.10;98.10;;;13.20;100.00;100921.69;5018222;28;20899;-65
2021/11/11 05:05:29;;;;;;;554.65;504.05;;;14.00;97.90;;;13.25;100.00;100922.41;5052199;28;20409;-65
2021/11/11 05:08:09;;;;;;;550.75;500.40;;;14.00;98.10;;;13.25;100.00;100929.75;5051854;28;20402;-69
2021/11/11 05:10:37;;;;;;;550.05;498.98;;;14.10;98.10;;;13.27;100.00;100920.19;5051631;28;20421;-65
2021/11/11 05:13:06;;;;;;;558.05;506.08;;;14.00;98.10;;;13.27;100.00;100920.19;5051265;28;20788;-66
2021/11/11 05:15:34;;;;;;;541.40;491.80;;;14.10;98.10;;;13.19;100.00;100922.81;5051960;28;20421;-66
2021/11/11 05:18:02;;;;;;;545.17;496.15;;;14.00;97.90;;;13.04;100.00;100932.06;5051871;28;20413;-67
2021/11/11 05:20:32;;;;;;;539.58;490.13;;;13.90;97.70;;;12.96;100.00;100930.84;5051589;28;20471;-66
2021/11/11 05:23:00;;;;;;;532.05;481.40;;;13.80;97.70;;;12.95;100.00;100928.44;5051251;28;20409;-68
2021/11/11 05:25:28;;;;;;;529.15;478.65;;;13.80;97.90;;;12.98;100.00;100933.28;5051795;28;20459;-65
2021/11/11 05:27:57;;;;;;;539.10;488.65;;;13.80;97.90;;;12.98;100.00;100941.41;5051696;28;20518;-64
2021/11/11 05:30:29;;;;;;;533.47;482.52;;;13.80;97.90;;;12.94;100.00;100941.22;5051827;28;20413;-64
2021/11/11 05:32:58;;;;;;;545.42;493.63;;;13.70;97.80;;;12.99;100.00;100940.28;5050862;28;20465;-67
2021/11/11 05:35:27;;;;;;;536.90;485.95;;;13.80;98.10;;;13.04;100.00;100949.13;5051599;28;20453;-68
2021/11/11 05:37:57;;;;;;;530.88;480.40;;;13.90;98.10;;;13.04;100.00;100951.84;5051408;28;20420;-64
2021/11/11 05:40:26;;;;;;;536.28;485.45;;;13.80;98.00;;;13.07;100.00;100953.16;5051416;28;20420;-64
2021/11/11 05:42:54;;;;;;;545.28;494.13;;;13.80;98.10;;;13.10;100.00;100955.31;5050944;28;20447;-64
2021/11/11 05:45:23;;;;;;;539.08;488.25;;;13.90;98.10;;;13.10;100.00;100958.81;5051341;28;20831;-64
2021/11/11 05:47:52;;;;;;;544.78;492.98;;;13.90;98.10;;;13.16;100.00;100956.81;5051266;28;20899;-66
2021/11/11 05:50:21;;;;;;;538.10;486.60;;;13.90;98.20;;;13.17;100.00;100961.13;5050958;28;20822;-65
2021/11/11 05:52:49;;;;;;;546.17;494.33;;;14.00;98.30;;;13.22;100.00;100960.22;5050482;28;20480;-64
2021/11/11 05:55:19;;;;;;;549.67;498.25;;;14.00;98.30;;;13.26;100.00;100964.72;5051112;28;20463;-67
2021/11/11 05:57:47;;;;;;;554.65;503.05;;;14.10;98.40;;;13.29;100.00;100955.97;5051083;28;20474;-64
2021/11/11 06:00:19;;;;;;;552.13;500.13;;;14.10;98.40;;;13.34;100.00;100957.78;5050735;28;20433;-62
2021/11/11 06:02:47;;;;;;;560.53;508.98;;;14.20;98.40;;;13.39;100.00;100946.81;5050446;28;20420;-64
2021/11/11 06:05:17;;;;;;;558.17;506.40;;;14.20;98.40;;;13.42;100.00;100948.91;5050973;28;20516;-68
2021/11/11 06:07:45;;;;;;;556.97;505.30;;;14.20;98.40;;;13.43;100.00;100950.53;5051112;28;20405;-64
2021/11/11 06:10:13;;;;;;;559.40;506.27;;;14.20;98.40;;;13.50;100.00;100956.31;5050649;28;20412;-67
2021/11/11 06:12:42;;;;;;;566.55;514.35;;;14.30;98.50;;;13.52;100.00;100959.56;5050344;28;20437;-67
2021/11/11 06:15:11;;;;;;;567.65;515.15;;;14.30;98.40;;;13.55;100.00;100959.75;5050598;28;20413;-68
2021/11/11 06:17:39;;;;;;;568.30;516.73;;;14.40;98.50;;;13.58;100.00;100955.63;5050599;28;20425;-65
2021/11/11 06:20:16;;;;;;;565.95;515.20;;;14.40;98.40;;;13.54;100.00;100946.47;5050635;28;20492;-70
2021/11/11 06:22:45;;;;;;;564.03;512.97;;;14.30;98.30;;;13.50;100.00;100948.19;5050180;28;20519;-70
2021/11/11 06:25:14;;;;;;;568.88;517.88;;;14.30;98.30;;;13.47;100.00;100940.63;5050567;28;20459;-68
2021/11/11 06:27:43;;;;;;;560.73;509.67;;;14.30;98.40;;;13.47;100.00;100943.34;5050565;28;20421;-65
2021/11/11 06:30:13;;;;;;;559.95;509.15;;;14.30;98.30;;;13.40;100.00;100945.72;5050421;28;20502;-67
2021/11/11 06:32:41;;;;;;;556.00;505.90;;;14.20;98.20;;;13.30;100.00;100943.22;5049969;28;20474;-67
2021/11/11 06:35:16;;;;;;;548.30;497.37;;;14.10;98.10;;;13.31;100.00;100950.25;5050069;28;20417;-68
2021/11/11 06:37:44;;;;;;;546.95;497.05;;;14.10;98.40;;;13.27;100.00;100952.78;5050349;28;20846;-64
2021/11/11 06:40:13;;;;;;;550.75;500.02;;;14.10;98.30;;;13.26;100.00;100950.34;5049894;28;20848;-67
2021/11/11 06:42:42;;;;;;;556.55;505.83;;;14.10;98.40;;;13.26;100.00;100955.78;5049513;28;20470;-67
2021/11/11 06:45:13;;;;;;;555.63;504.95;;;14.10;98.40;;;13.28;100.00;100962.53;5050219;28;20413;-69
2021/11/11 06:47:42;;;;;;;555.03;504.52;;;14.10;98.30;;;13.27;100.00;100962.81;5050012;28;20416;-66
2021/11/11 06:50:12;;;;;;;554.70;504.20;;;14.10;98.20;;;13.30;100.00;100968.47;5049907;28;20925;-68
2021/11/11 06:52:40;;;;;;;550.40;499.83;;;14.10;98.20;;;13.37;100.00;100973.47;5049211;28;20432;-67
2021/11/11 06:55:10;;;;;;;545.42;494.92;;;14.20;98.40;;;13.38;100.00;100965.00;5049830;28;20412;-69
2021/11/11 06:57:38;;;;;;;549.73;500.03;;;14.20;98.30;;;13.34;100.00;100974.91;5049878;28;20505;-67
2021/11/11 07:00:15;;;;;;;543.97;494.05;;;14.20;98.10;;;13.31;100.00;100978.22;5049610;28;20819;-67
2021/11/11 07:02:43;;;;;;;559.13;507.98;;;14.10;98.10;;;13.27;100.00;100979.94;5049463;28;20417;-64
2021/11/11 07:05:12;;;;;;;553.70;502.60;;;14.10;98.10;;;13.32;100.00;100976.28;5049673;28;20509;-71
2021/11/11 07:07:40;;;;;;;544.72;495.17;;;14.20;98.20;;;13.32;100.00;100979.00;5049169;28;20519;-65
2021/11/11 07:10:10;;;;;;;552.35;502.00;;;14.20;98.10;;;13.28;100.00;100978.03;5049574;28;20432;-67
2021/11/11 07:12:38;;;;;;;539.38;490.48;;;14.10;98.10;;;13.22;100.00;100981.94;5049141;28;20435;-65
2021/11/11 07:15:10;;;;;;;540.88;491.10;;;14.10;98.00;;;13.19;100.00;100982.56;5049693;28;20424;-66
2021/11/11 07:17:40;;;;;;;543.85;493.17;;;14.00;98.00;;;13.16;100.00;100978.53;5049679;28;20421;-64
2021/11/11 07:20:12;;;;;;;549.25;497.88;;;14.00;98.10;;;13.20;100.00;100984.13;5049421;28;20413;-63
2021/11/11 07:22:43;;;;;;;547.13;495.88;;;14.00;98.30;;;13.25;100.00;100986.78;5049427;28;20467;-65
2021/11/11 07:25:13;;;;;;;540.23;490.50;;;14.10;98.40;;;13.21;100.00;100989.28;5049552;28;20405;-69
2021/11/11 07:27:42;;;;;;;553.47;502.92;;;14.00;98.30;;;13.27;100.00;100984.56;5049605;28;20482;-67
2021/11/11 07:30:15;;;;;;;555.20;504.52;;;14.10;98.50;;;13.24;100.00;100982.44;5049313;28;20405;-68
2021/11/11 07:32:43;;;;;;;555.27;504.83;;;14.10;98.30;;;13.23;100.00;100986.25;5048850;28;20425;-67
2021/11/11 07:35:13;;;;;;;556.42;504.58;;;14.10;98.30;;;13.30;100.00;100982.03;5049501;28;20409;-67
2021/11/11 07:37:44;;;;;;;558.13;506.23;;;14.20;98.40;;;13.62;100.00;100987.28;5049505;28;20417;-65
2021/11/11 07:40:15;;;;;;;568.67;518.47;;;14.40;98.80;;;13.96;100.00;100989.50;5049265;28;20447;-66
2021/11/11 07:42:45;;;;;;;581.30;531.92;;;14.80;98.60;;;14.32;100.00;100977.78;5049029;28;20413;-70
2021/11/11 07:45:18;;;;;;;597.20;547.90;;;15.20;98.30;;;14.60;100.00;100974.59;5049515;28;20413;-65
2021/11/11 07:47:47;;;;;;;612.50;563.33;;;15.40;97.70;;;14.85;100.00;100978.56;5049657;28;20421;-67
2021/11/11 07:50:15;;;;;;;636.17;586.47;;;15.70;97.30;;;15.04;100.00;100981.03;5049154;28;20412;-68
2021/11/11 07:52:43;;;;;;;641.78;592.20;;;15.80;96.80;;;15.00;100.00;100986.31;5048991;28;20432;-70
2021/11/11 07:55:11;;;;;;;641.20;591.83;;;15.80;96.40;;;14.96;100.00;100974.44;5049326;28;20417;-70
2021/11/11 07:57:40;;;;;;;648.40;598.55;;;15.70;96.50;;;15.18;100.00;100989.88;5049329;28;20413;-68
2021/11/11 08:00:12;;;;;;;663.17;613.17;;;15.90;96.70;;;15.22;100.00;100982.69;5049109;28;20420;-69
2021/11/11 08:02:45;;;;;;;654.88;605.05;;;16.00;96.60;;;15.07;100.00;100981.22;5048810;28;20409;-64
2021/11/11 08:05:15;;;;;;;660.70;610.53;;;15.90;96.60;;;15.10;100.00;100988.75;5049306;28;20899;-66
2021/11/11 08:07:45;;;;;;;666.80;616.40;;;15.80;97.00;;;15.26;100.00;100992.63;5049244;28;20475;-66
2021/11/11 08:10:14;;;;;;;662.42;611.13;;;16.00;97.10;;;15.46;100.00;101001.34;5048805;28;20417;-69
2021/11/11 08:12:47;;;;;;;669.33;618.17;;;16.10;97.10;;;15.41;100.00;100996.06;5048822;28;20425;-68
2021/11/11 08:15:16;;;;;;;667.73;616.77;;;16.20;97.20;;;15.31;100.00;101003.41;5048954;28;20428;-69
2021/11/11 08:17:46;;;;;;;666.73;615.57;;;16.10;97.20;;;15.32;100.00;101004.97;5049183;28;20773;-66
2021/11/11 08:20:16;;;;;;;664.42;613.65;;;16.10;97.20;;;15.38;100.00;101010.31;5050195;28;20413;-65
2021/11/11 08:22:46;;;;;;;668.47;617.80;;;16.10;97.20;;;15.29;100.00;101016.50;5052266;28;20908;-69
2021/11/11 08:25:17;;;;;;;665.67;614.83;;;16.10;97.20;;;15.18;100.00;101014.41;5052931;28;20915;-68
2021/11/11 08:27:46;;;;;;;670.78;619.00;;;16.10;97.20;;;15.14;100.00;101022.41;5052784;28;20474;-65
2021/11/11 08:30:20;;;;;;;665.95;614.42;;;16.00;97.30;;;15.15;100.00;101024.00;5052558;28;20428;-63
2021/11/11 08:32:54;;;;;;;666.65;615.03;;;16.00;97.30;;;15.25;100.00;101026.47;5051972;28;20437;-64
2021/11/11 08:35:23;;;;;;;672.35;621.25;;;16.10;97.50;;;15.32;100.00;101024.06;5052615;28;20413;-68
2021/11/11 08:37:53;;;;;;;667.87;616.00;;;16.20;97.60;;;15.42;100.00;101028.41;5052512;28;20416;-69
2021/11/11 08:40:22;;;;;;;672.50;621.05;;;16.30;97.70;;;15.49;100.00;101028.00;5052198;28;20428;-66
2021/11/11 08:42:54;;;;;;;665.78;614.78;;;16.30;97.60;;;15.61;100.00;101033.63;5051948;28;20409;-64
2021/11/11 08:45:24;;;;;;;680.13;628.83;;;16.40;97.60;;;15.66;100.00;101037.00;5052339;28;20970;-63
2021/11/11 08:47:55;;;;;;;682.80;631.17;;;16.50;97.60;;;15.71;100.00;101030.59;5052383;28;20471;-63
2021/11/11 08:50:25;;;;;;;682.53;630.90;;;16.60;97.60;;;15.81;100.00;101038.44;5052183;28;20845;-64
2021/11/11 08:52:55;;;;;;;690.63;638.75;;;16.60;97.40;;;15.89;100.00;101029.50;5051864;28;20425;-64
2021/11/11 08:55:26;;;;;;;694.15;642.85;;;16.70;97.40;;;15.93;100.00;101021.47;5052305;28;20442;-61
2021/11/11 08:57:55;;;;;;;687.83;636.53;;;16.70;97.30;;;16.01;100.00;101018.75;5052086;28;20428;-62
2021/11/11 09:00:26;;;;;;;695.30;643.50;;;16.80;97.40;;;16.22;100.00;101025.16;5051988;28;20417;-64
2021/11/11 09:02:57;;;;;;;701.35;649.33;;;17.00;97.20;;;16.46;100.00;101023.84;5051419;28;20503;-65
2021/11/11 09:05:30;;;;;;;707.30;655.90;;;17.10;97.20;;;16.66;100.00;101031.38;5052133;28;20864;-66
2021/11/11 09:07:59;;;;;;;722.72;671.08;;;17.40;96.90;;;16.86;100.00;101028.75;5051986;28;20839;-65
2021/11/11 09:10:28;;;;;;;733.58;681.42;;;17.60;96.80;;;17.09;100.00;101029.31;5051725;28;20413;-66
2021/11/11 09:12:57;;;;;;;740.42;688.20;;;17.80;96.50;;;17.17;100.00;101025.75;5051287;28;20852;-65
2021/11/11 09:15:30;;;;;;;749.35;697.15;;;18.00;96.30;;;17.02;100.00;101030.94;5052030;28;20416;-65
2021/11/11 09:18:03;;;;;;;747.45;695.42;;;17.90;96.00;;;16.85;100.00;101026.34;5051818;28;20417;-63
2021/11/11 09:20:32;;;;;;;741.97;690.00;;;17.70;96.00;;;16.66;100.00;101037.63;5051580;28;20410;-65
2021/11/11 09:23:02;;;;;;;731.03;679.00;;;17.50;96.00;;;16.60;100.00;101038.94;5051195;28;20460;-64
2021/11/11 09:25:31;;;;;;;732.08;680.65;;;17.50;96.20;;;16.68;100.00;101038.13;5051913;28;20483;-63
2021/11/11 09:28:01;;;;;;;733.23;681.40;;;17.50;96.30;;;16.71;100.00;101053.06;5051604;28;20884;-65
2021/11/11 09:30:32;;;;;;;738.77;686.73;;;17.50;96.20;;;16.75;100.00;101054.00;5049840;28;20991;-65
2021/11/11 09:33:09;;;;;;;737.03;685.17;;;17.50;96.20;;;16.88;100.00;101042.88;5049652;28;20482;-63
2021/11/11 09:35:38;;;;;;;741.00;688.95;;;17.70;96.00;;;16.98;100.00;101041.72;5051448;28;20919;-66
2021/11/11 09:38:06;;;;;;;746.17;694.17;;;17.70;95.90;;;17.16;100.00;101043.25;5051714;28;20828;-63
2021/11/11 09:40:36;;;;;;;756.78;704.47;;;17.90;96.20;;;17.60;100.00;101036.44;5051322;28;20422;-63
2021/11/11 09:43:05;;;;;;;764.30;712.00;;;18.20;95.90;;;17.82;100.00;101029.88;5050656;28;20409;-68
2021/11/11 09:45:35;;;;;;;772.45;720.13;;;18.50;95.20;;;17.67;100.00;101033.19;5051176;28;20413;-63
2021/11/11 09:48:06;;;;;;;763.92;711.40;;;18.40;94.70;;;17.40;100.00;101040.72;5051313;28;20413;-66
2021/11/11 09:50:34;;;;;;;767.35;714.72;;;18.30;94.80;;;17.26;100.00;101042.91;5051290;28;20456;-65
2021/11/11 09:53:08;;;;;;;764.03;710.92;;;18.10;95.00;;;17.60;100.00;101035.69;5050450;28;20417;-63
2021/11/11 09:58:43;;;;;;;772.25;719.58;;;18.40;94.90;;;17.33;100.00;101050.56;5050929;28;20400;-62
2021/11/11 10:01:16;;;;;;;766.63;714.30;;;18.20;94.30;;;17.52;100.00;101045.47;5050890;28;20440;-65
2021/11/11 10:03:48;;;;;;;768.30;715.53;;;18.30;95.00;;;17.62;100.00;101038.88;5050461;28;20420;-65
2021/11/11 10:06:21;;;;;;;774.00;721.43;;;18.40;94.20;;;17.64;100.00;101047.53;5050867;28;20926;-67
2021/11/11 10:08:51;;;;;;;770.33;717.33;;;18.40;94.50;;;17.55;100.00;101060.44;5050703;28;20487;-67
2021/11/11 10:11:32;;;;;;;767.47;714.92;;;18.30;94.30;;;17.40;100.00;101059.88;5050870;28;20421;-63
2021/11/11 10:14:03;;;;;;;767.03;714.25;;;18.20;94.30;;;17.73;100.00;101064.69;5036007;28;20875;-64